sensor_id;sensor_type;location;lat;lon;timestamp;pressure;altitude;pressure_sealevel;temperature;humidity
65394;BME280;52002;49.760;6.512;2023-07-28T00:01:24;99234.30;;;18.03;81.95
65394;BME280;52002;49.760;6.512;2023-07-28T00:03:50;99235.21;;;18.03;81.90
65394;BME280;52002;49.760;6.512;2023-07-28T00:06:15;99238.25;;;18.03;81.94
65394;BME280;52002;49.760;6.512;2023-07-28T00:08:40;99237.66;;;18.03;81.98
65394;BME280;52002;49.760;6.512;2023-07-28T00:11:13;99233.35;;;18.05;82.01
65394;BME280;52002;49.760;6.512;2023-07-28T00:13:39;99229.73;;;18.04;81.88
65394;BME280;52002;49.760;6.512;2023-07-28T00:16:06;99236.41;;;18.03;81.99
65394;BME280;52002;49.760;6.512;2023-07-28T00:18:31;99236.41;;;18.02;81.95
65394;BME280;52002;49.760;6.512;2023-07-28T00:20:57;99234.00;;;18.03;81.82
65394;BME280;52002;49.760;6.512;2023-07-28T00:23:22;99228.56;;;18.03;81.85
65394;BME280;52002;49.760;6.512;2023-07-28T00:25:47;99229.36;;;18.04;81.89
65394;BME280;52002;49.760;6.512;2023-07-28T00:28:13;99227.61;;;18.04;81.90
65394;BME280;52002;49.760;6.512;2023-07-28T00:30:39;99228.66;;;18.05;81.73
65394;BME280;52002;49.760;6.512;2023-07-28T00:33:05;99223.24;;;18.04;81.96
65394;BME280;52002;49.760;6.512;2023-07-28T00:35:30;99219.38;;;18.03;81.92
65394;BME280;52002;49.760;6.512;2023-07-28T00:37:56;99216.56;;;18.04;82.09
65394;BME280;52002;49.760;6.512;2023-07-28T00:40:22;99217.06;;;18.06;81.94
65394;BME280;52002;49.760;6.512;2023-07-28T00:42:48;99210.67;;;18.08;81.88
65394;BME280;52002;49.760;6.512;2023-07-28T00:45:13;99206.69;;;18.08;81.93
65394;BME280;52002;49.760;6.512;2023-07-28T00:47:39;99204.91;;;18.10;81.91
65394;BME280;52002;49.760;6.512;2023-07-28T00:50:04;99204.65;;;18.10;81.91
65394;BME280;52002;49.760;6.512;2023-07-28T00:52:32;99201.61;;;18.08;81.82
65394;BME280;52002;49.760;6.512;2023-07-28T00:54:57;99202.60;;;18.06;81.75
65394;BME280;52002;49.760;6.512;2023-07-28T00:57:22;99200.89;;;18.02;81.79
65394;BME280;52002;49.760;6.512;2023-07-28T00:59:48;99204.96;;;18.03;81.95
65394;BME280;52002;49.760;6.512;2023-07-28T01:02:13;99207.25;;;18.03;81.97
65394;BME280;52002;49.760;6.512;2023-07-28T01:04:39;99200.69;;;18.04;82.02
65394;BME280;52002;49.760;6.512;2023-07-28T01:07:15;99200.85;;;18.04;82.02
65394;BME280;52002;49.760;6.512;2023-07-28T01:12:33;99197.12;;;18.05;82.11
65394;BME280;52002;49.760;6.512;2023-07-28T01:14:58;99198.62;;;18.05;81.94
65394;BME280;52002;49.760;6.512;2023-07-28T01:17:23;99202.27;;;18.03;81.88
65394;BME280;52002;49.760;6.512;2023-07-28T01:19:50;99202.84;;;18.03;81.99
65394;BME280;52002;49.760;6.512;2023-07-28T01:22:48;99202.05;;;18.02;81.92
65394;BME280;52002;49.760;6.512;2023-07-28T01:25:28;99199.02;;;18.03;82.11
65394;BME280;52002;49.760;6.512;2023-07-28T01:27:58;99204.54;;;18.04;82.10
65394;BME280;52002;49.760;6.512;2023-07-28T01:30:27;99203.92;;;18.03;82.15
65394;BME280;52002;49.760;6.512;2023-07-28T01:32:57;99204.34;;;18.02;82.11
65394;BME280;52002;49.760;6.512;2023-07-28T01:35:24;99201.30;;;17.99;82.04
65394;BME280;52002;49.760;6.512;2023-07-28T01:37:49;99196.50;;;17.97;82.08
65394;BME280;52002;49.760;6.512;2023-07-28T01:40:18;99197.91;;;17.98;82.18
65394;BME280;52002;49.760;6.512;2023-07-28T01:42:43;99199.60;;;17.99;82.30
65394;BME280;52002;49.760;6.512;2023-07-28T01:45:09;99204.13;;;18.00;82.23
65394;BME280;52002;49.760;6.512;2023-07-28T01:47:34;99204.01;;;17.99;82.36
65394;BME280;52002;49.760;6.512;2023-07-28T01:49:59;99202.42;;;18.00;82.40
65394;BME280;52002;49.760;6.512;2023-07-28T01:52:25;99200.30;;;18.01;82.31
65394;BME280;52002;49.760;6.512;2023-07-28T01:54:50;99199.58;;;18.04;82.36
65394;BME280;52002;49.760;6.512;2023-07-28T01:57:15;99203.06;;;18.05;82.32
65394;BME280;52002;49.760;6.512;2023-07-28T01:59:41;99207.80;;;18.06;82.16
65394;BME280;52002;49.760;6.512;2023-07-28T02:02:06;99202.56;;;18.05;82.19
65394;BME280;52002;49.760;6.512;2023-07-28T02:04:31;99205.98;;;18.07;82.30
65394;BME280;52002;49.760;6.512;2023-07-28T02:06:57;99207.92;;;18.07;82.18
65394;BME280;52002;49.760;6.512;2023-07-28T02:09:22;99205.48;;;18.06;82.04
65394;BME280;52002;49.760;6.512;2023-07-28T02:11:47;99202.77;;;18.06;82.23
65394;BME280;52002;49.760;6.512;2023-07-28T02:14:12;99204.48;;;18.07;82.20
65394;BME280;52002;49.760;6.512;2023-07-28T02:16:38;99204.39;;;18.08;82.17
65394;BME280;52002;49.760;6.512;2023-07-28T02:19:03;99211.03;;;18.06;82.03
65394;BME280;52002;49.760;6.512;2023-07-28T02:21:28;99207.92;;;18.05;82.07
65394;BME280;52002;49.760;6.512;2023-07-28T02:23:54;99212.33;;;18.06;82.10
65394;BME280;52002;49.760;6.512;2023-07-28T02:26:19;99221.84;;;18.08;82.19
65394;BME280;52002;49.760;6.512;2023-07-28T02:28:44;99219.45;;;18.09;82.15
65394;BME280;52002;49.760;6.512;2023-07-28T02:31:10;99214.74;;;18.11;82.23
65394;BME280;52002;49.760;6.512;2023-07-28T02:33:35;99213.79;;;18.14;82.13
65394;BME280;52002;49.760;6.512;2023-07-28T02:36:03;99213.78;;;18.16;82.09
65394;BME280;52002;49.760;6.512;2023-07-28T02:38:29;99215.66;;;18.16;82.07
65394;BME280;52002;49.760;6.512;2023-07-28T02:40:54;99211.84;;;18.15;81.98
65394;BME280;52002;49.760;6.512;2023-07-28T02:43:19;99213.88;;;18.15;82.06
65394;BME280;52002;49.760;6.512;2023-07-28T02:45:48;99215.21;;;18.16;82.19
65394;BME280;52002;49.760;6.512;2023-07-28T02:48:14;99213.30;;;18.18;82.12
65394;BME280;52002;49.760;6.512;2023-07-28T02:50:45;99211.27;;;18.18;82.17
65394;BME280;52002;49.760;6.512;2023-07-28T02:53:10;99218.23;;;18.17;82.12
65394;BME280;52002;49.760;6.512;2023-07-28T02:55:41;99221.36;;;18.15;82.35
65394;BME280;52002;49.760;6.512;2023-07-28T02:58:06;99230.95;;;18.12;82.18
65394;BME280;52002;49.760;6.512;2023-07-28T03:00:31;99224.80;;;18.09;82.10
65394;BME280;52002;49.760;6.512;2023-07-28T03:02:57;99229.27;;;18.06;82.15
65394;BME280;52002;49.760;6.512;2023-07-28T03:05:22;99227.20;;;18.05;82.29
65394;BME280;52002;49.760;6.512;2023-07-28T03:07:47;99226.63;;;18.05;82.34
65394;BME280;52002;49.760;6.512;2023-07-28T03:10:14;99232.86;;;18.06;82.24
65394;BME280;52002;49.760;6.512;2023-07-28T03:12:41;99232.11;;;18.06;82.42
65394;BME280;52002;49.760;6.512;2023-07-28T03:15:07;99232.82;;;18.09;82.43
65394;BME280;52002;49.760;6.512;2023-07-28T03:17:33;99230.73;;;18.11;82.44
65394;BME280;52002;49.760;6.512;2023-07-28T03:19:58;99228.16;;;18.13;82.28
65394;BME280;52002;49.760;6.512;2023-07-28T03:22:23;99230.25;;;18.14;82.37
65394;BME280;52002;49.760;6.512;2023-07-28T03:24:48;99232.53;;;18.14;82.40
65394;BME280;52002;49.760;6.512;2023-07-28T03:27:15;99237.14;;;18.13;82.26
65394;BME280;52002;49.760;6.512;2023-07-28T03:29:40;99240.38;;;18.12;82.32
65394;BME280;52002;49.760;6.512;2023-07-28T03:32:05;99239.89;;;18.10;82.32
65394;BME280;52002;49.760;6.512;2023-07-28T03:34:31;99238.23;;;18.09;82.29
65394;BME280;52002;49.760;6.512;2023-07-28T03:36:56;99240.51;;;18.10;82.60
65394;BME280;52002;49.760;6.512;2023-07-28T03:39:21;99237.55;;;18.12;82.64
65394;BME280;52002;49.760;6.512;2023-07-28T03:41:47;99236.80;;;18.13;82.82
65394;BME280;52002;49.760;6.512;2023-07-28T03:44:12;99238.51;;;18.14;82.58
65394;BME280;52002;49.760;6.512;2023-07-28T03:46:37;99238.73;;;18.14;82.71
65394;BME280;52002;49.760;6.512;2023-07-28T03:49:03;99234.14;;;18.13;82.72
65394;BME280;52002;49.760;6.512;2023-07-28T03:51:28;99235.31;;;18.14;82.63
65394;BME280;52002;49.760;6.512;2023-07-28T03:53:53;99239.55;;;18.14;82.60
65394;BME280;52002;49.760;6.512;2023-07-28T03:56:19;99242.95;;;18.13;82.58
65394;BME280;52002;49.760;6.512;2023-07-28T03:58:44;99242.91;;;18.13;82.70
65394;BME280;52002;49.760;6.512;2023-07-28T04:01:09;99240.96;;;18.14;82.71
65394;BME280;52002;49.760;6.512;2023-07-28T04:03:35;99240.02;;;18.15;82.57
65394;BME280;52002;49.760;6.512;2023-07-28T04:06:05;99244.33;;;18.15;82.77
65394;BME280;52002;49.760;6.512;2023-07-28T04:08:30;99245.70;;;18.15;82.64
65394;BME280;52002;49.760;6.512;2023-07-28T04:10:56;99249.14;;;18.12;82.51
65394;BME280;52002;49.760;6.512;2023-07-28T04:13:21;99253.34;;;18.11;82.64
65394;BME280;52002;49.760;6.512;2023-07-28T04:15:46;99250.96;;;18.11;82.53
65394;BME280;52002;49.760;6.512;2023-07-28T04:18:12;99250.02;;;18.11;82.52
65394;BME280;52002;49.760;6.512;2023-07-28T04:20:37;99251.27;;;18.13;82.47
65394;BME280;52002;49.760;6.512;2023-07-28T04:23:02;99254.00;;;18.12;82.35
65394;BME280;52002;49.760;6.512;2023-07-28T04:25:28;99256.09;;;18.13;82.44
65394;BME280;52002;49.760;6.512;2023-07-28T04:27:53;99249.14;;;18.14;82.27
65394;BME280;52002;49.760;6.512;2023-07-28T04:30:20;99251.02;;;18.14;82.09
65394;BME280;52002;49.760;6.512;2023-07-28T04:32:45;99250.16;;;18.16;82.11
65394;BME280;52002;49.760;6.512;2023-07-28T04:35:10;99250.98;;;18.15;81.90
65394;BME280;52002;49.760;6.512;2023-07-28T04:37:36;99252.36;;;18.15;81.96
65394;BME280;52002;49.760;6.512;2023-07-28T04:40:01;99248.33;;;18.16;81.95
65394;BME280;52002;49.760;6.512;2023-07-28T04:42:26;99255.73;;;18.16;81.87
65394;BME280;52002;49.760;6.512;2023-07-28T04:44:52;99261.33;;;18.14;81.89
65394;BME280;52002;49.760;6.512;2023-07-28T04:47:17;99265.81;;;18.14;81.95
65394;BME280;52002;49.760;6.512;2023-07-28T04:49:42;99268.73;;;18.15;81.93
65394;BME280;52002;49.760;6.512;2023-07-28T04:52:08;99268.65;;;18.17;82.01
65394;BME280;52002;49.760;6.512;2023-07-28T04:54:33;99267.38;;;18.19;81.92
65394;BME280;52002;49.760;6.512;2023-07-28T04:56:58;99266.74;;;18.22;82.08
65394;BME280;52002;49.760;6.512;2023-07-28T04:59:24;99263.89;;;18.26;82.00
65394;BME280;52002;49.760;6.512;2023-07-28T05:01:49;99263.03;;;18.31;82.00
65394;BME280;52002;49.760;6.512;2023-07-28T05:04:14;99258.09;;;18.34;81.86
65394;BME280;52002;49.760;6.512;2023-07-28T05:06:39;99259.09;;;18.41;81.80
65394;BME280;52002;49.760;6.512;2023-07-28T05:09:05;99259.50;;;18.50;81.64
65394;BME280;52002;49.760;6.512;2023-07-28T05:11:30;99262.72;;;18.59;81.30
65394;BME280;52002;49.760;6.512;2023-07-28T05:13:55;99264.59;;;18.68;81.20
65394;BME280;52002;49.760;6.512;2023-07-28T05:16:21;99265.02;;;18.76;81.02
65394;BME280;52002;49.760;6.512;2023-07-28T05:18:46;99264.50;;;18.81;80.79
65394;BME280;52002;49.760;6.512;2023-07-28T05:21:11;99261.55;;;18.87;80.72
65394;BME280;52002;49.760;6.512;2023-07-28T05:23:36;99262.67;;;18.92;80.35
65394;BME280;52002;49.760;6.512;2023-07-28T05:26:02;99264.09;;;18.98;80.15
65394;BME280;52002;49.760;6.512;2023-07-28T05:28:27;99261.64;;;18.98;80.08
65394;BME280;52002;49.760;6.512;2023-07-28T05:30:52;99264.30;;;18.99;80.08
65394;BME280;52002;49.760;6.512;2023-07-28T05:33:18;99266.93;;;18.96;79.90
65394;BME280;52002;49.760;6.512;2023-07-28T05:35:43;99272.14;;;18.95;79.94
65394;BME280;52002;49.760;6.512;2023-07-28T05:38:08;99269.11;;;18.95;79.99
65394;BME280;52002;49.760;6.512;2023-07-28T05:40:34;99271.19;;;18.95;79.95
65394;BME280;52002;49.760;6.512;2023-07-28T05:42:59;99268.77;;;18.96;80.05
65394;BME280;52002;49.760;6.512;2023-07-28T05:45:24;99269.91;;;18.94;80.06
65394;BME280;52002;49.760;6.512;2023-07-28T05:47:50;99277.09;;;18.95;80.04
65394;BME280;52002;49.760;6.512;2023-07-28T05:50:15;99281.16;;;18.94;79.94
65394;BME280;52002;49.760;6.512;2023-07-28T05:52:40;99290.55;;;18.93;79.96
65394;BME280;52002;49.760;6.512;2023-07-28T05:55:06;99291.44;;;18.94;80.07
65394;BME280;52002;49.760;6.512;2023-07-28T05:57:31;99290.38;;;18.95;80.29
65394;BME280;52002;49.760;6.512;2023-07-28T05:59:57;99297.77;;;18.99;80.25
65394;BME280;52002;49.760;6.512;2023-07-28T06:02:22;99302.42;;;19.06;80.12
65394;BME280;52002;49.760;6.512;2023-07-28T06:04:48;99304.29;;;19.18;80.10
65394;BME280;52002;49.760;6.512;2023-07-28T06:07:13;99300.93;;;19.31;79.93
65394;BME280;52002;49.760;6.512;2023-07-28T06:09:39;99299.30;;;19.37;79.67
65394;BME280;52002;49.760;6.512;2023-07-28T06:12:04;99302.33;;;19.41;79.45
65394;BME280;52002;49.760;6.512;2023-07-28T06:14:30;99297.87;;;19.45;79.42
65394;BME280;52002;49.760;6.512;2023-07-28T06:16:55;99300.92;;;19.49;79.34
65394;BME280;52002;49.760;6.512;2023-07-28T06:19:21;99301.25;;;19.50;79.00
65394;BME280;52002;49.760;6.512;2023-07-28T06:21:50;99301.55;;;19.49;78.98
65394;BME280;52002;49.760;6.512;2023-07-28T06:24:16;99304.67;;;19.50;78.96
65394;BME280;52002;49.760;6.512;2023-07-28T06:26:41;99305.02;;;19.48;78.87
65394;BME280;52002;49.760;6.512;2023-07-28T06:29:07;99306.25;;;19.47;78.88
65394;BME280;52002;49.760;6.512;2023-07-28T06:31:32;99311.23;;;19.45;78.73
65394;BME280;52002;49.760;6.512;2023-07-28T06:33:57;99308.40;;;19.41;78.89
65394;BME280;52002;49.760;6.512;2023-07-28T06:36:24;99311.13;;;19.35;78.88
65394;BME280;52002;49.760;6.512;2023-07-28T06:38:49;99312.73;;;19.29;79.15
65394;BME280;52002;49.760;6.512;2023-07-28T06:41:15;99321.30;;;19.25;79.39
65394;BME280;52002;49.760;6.512;2023-07-28T06:43:40;99323.64;;;19.24;79.48
65394;BME280;52002;49.760;6.512;2023-07-28T06:46:06;99324.51;;;19.23;79.50
65394;BME280;52002;49.760;6.512;2023-07-28T06:48:31;99322.55;;;19.24;79.66
65394;BME280;52002;49.760;6.512;2023-07-28T06:50:57;99326.55;;;19.24;79.45
65394;BME280;52002;49.760;6.512;2023-07-28T06:53:22;99329.46;;;19.25;79.63
65394;BME280;52002;49.760;6.512;2023-07-28T06:55:47;99327.40;;;19.31;79.53
65394;BME280;52002;49.760;6.512;2023-07-28T06:58:13;99326.95;;;19.34;79.53
65394;BME280;52002;49.760;6.512;2023-07-28T07:00:38;99323.50;;;19.37;79.51
65394;BME280;52002;49.760;6.512;2023-07-28T07:03:03;99321.39;;;19.46;79.45
65394;BME280;52002;49.760;6.512;2023-07-28T07:05:28;99328.48;;;19.56;79.50
65394;BME280;52002;49.760;6.512;2023-07-28T07:07:54;99332.59;;;19.72;79.35
65394;BME280;52002;49.760;6.512;2023-07-28T07:10:20;99333.15;;;19.88;79.10
65394;BME280;52002;49.760;6.512;2023-07-28T07:12:46;99334.80;;;19.98;78.89
65394;BME280;52002;49.760;6.512;2023-07-28T07:15:11;99335.95;;;20.00;78.42
65394;BME280;52002;49.760;6.512;2023-07-28T07:17:37;99340.56;;;20.00;78.39
65394;BME280;52002;49.760;6.512;2023-07-28T07:20:02;99340.05;;;20.06;78.37
65394;BME280;52002;49.760;6.512;2023-07-28T07:22:28;99344.13;;;20.17;78.17
65394;BME280;52002;49.760;6.512;2023-07-28T07:24:53;99343.27;;;20.25;78.02
65394;BME280;52002;49.760;6.512;2023-07-28T07:27:19;99349.10;;;20.23;77.74
65394;BME280;52002;49.760;6.512;2023-07-28T07:29:44;99349.20;;;20.19;77.69
65394;BME280;52002;49.760;6.512;2023-07-28T07:32:10;99355.33;;;20.13;77.57
65394;BME280;52002;49.760;6.512;2023-07-28T07:34:36;99358.82;;;20.05;77.63
65394;BME280;52002;49.760;6.512;2023-07-28T07:37:03;99358.58;;;20.00;77.75
65394;BME280;52002;49.760;6.512;2023-07-28T07:39:29;99359.80;;;19.98;77.78
65394;BME280;52002;49.760;6.512;2023-07-28T07:41:54;99356.20;;;19.99;78.01
65394;BME280;52002;49.760;6.512;2023-07-28T07:44:20;99356.75;;;19.97;77.86
65394;BME280;52002;49.760;6.512;2023-07-28T07:46:45;99359.61;;;19.95;77.87
65394;BME280;52002;49.760;6.512;2023-07-28T07:49:10;99362.74;;;20.00;78.02
65394;BME280;52002;49.760;6.512;2023-07-28T07:51:35;99366.03;;;20.02;77.70
65394;BME280;52002;49.760;6.512;2023-07-28T07:54:01;99364.95;;;20.04;77.77
65394;BME280;52002;49.760;6.512;2023-07-28T07:56:27;99365.41;;;20.04;77.82
65394;BME280;52002;49.760;6.512;2023-07-28T07:58:53;99369.15;;;20.07;77.81
65394;BME280;52002;49.760;6.512;2023-07-28T08:01:18;99374.77;;;20.08;77.73
65394;BME280;52002;49.760;6.512;2023-07-28T08:03:43;99375.30;;;20.12;77.66
65394;BME280;52002;49.760;6.512;2023-07-28T08:06:09;99376.61;;;20.16;77.54
65394;BME280;52002;49.760;6.512;2023-07-28T08:08:36;99375.25;;;20.17;77.64
65394;BME280;52002;49.760;6.512;2023-07-28T08:11:02;99375.84;;;20.22;77.70
65394;BME280;52002;49.760;6.512;2023-07-28T08:13:27;99375.11;;;20.24;77.36
65394;BME280;52002;49.760;6.512;2023-07-28T08:15:53;99381.27;;;20.27;77.23
65394;BME280;52002;49.760;6.512;2023-07-28T08:18:19;99383.98;;;20.28;77.23
65394;BME280;52002;49.760;6.512;2023-07-28T08:20:45;99380.50;;;20.31;77.08
65394;BME280;52002;49.760;6.512;2023-07-28T08:23:11;99378.48;;;20.36;77.18
65394;BME280;52002;49.760;6.512;2023-07-28T08:25:36;99379.21;;;20.48;77.03
65394;BME280;52002;49.760;6.512;2023-07-28T08:28:01;99380.17;;;20.69;76.77
65394;BME280;52002;49.760;6.512;2023-07-28T08:30:27;99380.04;;;21.28;76.05
65394;BME280;52002;49.760;6.512;2023-07-28T08:32:52;99381.88;;;21.74;75.08
65394;BME280;52002;49.760;6.512;2023-07-28T08:35:18;99387.21;;;21.84;74.50
65394;BME280;52002;49.760;6.512;2023-07-28T08:37:43;99386.40;;;21.77;74.27
65394;BME280;52002;49.760;6.512;2023-07-28T08:40:09;99381.91;;;21.67;74.19
65394;BME280;52002;49.760;6.512;2023-07-28T08:42:37;99382.86;;;21.65;74.11
65394;BME280;52002;49.760;6.512;2023-07-28T08:45:07;99380.45;;;21.61;73.98
65394;BME280;52002;49.760;6.512;2023-07-28T08:47:36;99388.65;;;21.60;73.82
65394;BME280;52002;49.760;6.512;2023-07-28T08:50:02;99386.43;;;21.70;73.90
65394;BME280;52002;49.760;6.512;2023-07-28T08:52:28;99389.58;;;21.77;73.62
65394;BME280;52002;49.760;6.512;2023-07-28T08:54:53;99392.38;;;21.77;73.64
65394;BME280;52002;49.760;6.512;2023-07-28T08:57:19;99393.41;;;21.70;73.50
65394;BME280;52002;49.760;6.512;2023-07-28T08:59:45;99392.52;;;21.63;73.70
65394;BME280;52002;49.760;6.512;2023-07-28T09:02:15;99389.79;;;21.58;73.93
65394;BME280;52002;49.760;6.512;2023-07-28T09:04:42;99392.95;;;21.51;73.70
65394;BME280;52002;49.760;6.512;2023-07-28T09:07:07;99393.81;;;21.51;74.09
65394;BME280;52002;49.760;6.512;2023-07-28T09:09:33;99388.17;;;21.57;74.14
65394;BME280;52002;49.760;6.512;2023-07-28T09:11:59;99389.33;;;21.65;73.81
65394;BME280;52002;49.760;6.512;2023-07-28T09:14:25;99387.18;;;21.70;73.64
65394;BME280;52002;49.760;6.512;2023-07-28T09:16:51;99390.42;;;21.72;73.51
65394;BME280;52002;49.760;6.512;2023-07-28T09:19:17;99386.69;;;21.74;73.44
65394;BME280;52002;49.760;6.512;2023-07-28T09:21:44;99386.92;;;21.91;73.26
65394;BME280;52002;49.760;6.512;2023-07-28T09:24:13;99383.63;;;22.45;72.73
65394;BME280;52002;49.760;6.512;2023-07-28T09:26:44;99390.27;;;23.08;71.38
65394;BME280;52002;49.760;6.512;2023-07-28T09:29:20;99394.10;;;23.30;70.62
65394;BME280;52002;49.760;6.512;2023-07-28T09:31:47;99394.80;;;23.23;70.46
65394;BME280;52002;49.760;6.512;2023-07-28T09:34:23;99396.54;;;23.06;70.28
65394;BME280;52002;49.760;6.512;2023-07-28T09:36:49;99398.80;;;23.07;70.50
65394;BME280;52002;49.760;6.512;2023-07-28T09:39:15;99406.98;;;23.05;70.24
65394;BME280;52002;49.760;6.512;2023-07-28T09:41:42;99407.85;;;22.97;70.44
65394;BME280;52002;49.760;6.512;2023-07-28T09:44:10;99409.40;;;22.83;70.42
65394;BME280;52002;49.760;6.512;2023-07-28T09:46:35;99407.10;;;22.68;70.42
65394;BME280;52002;49.760;6.512;2023-07-28T09:49:05;99409.41;;;22.52;70.71
65394;BME280;52002;49.760;6.512;2023-07-28T09:51:35;99410.89;;;22.40;70.83
65394;BME280;52002;49.760;6.512;2023-07-28T09:54:05;99411.59;;;22.34;71.05
65394;BME280;52002;49.760;6.512;2023-07-28T09:56:31;99406.54;;;22.20;71.22
65394;BME280;52002;49.760;6.512;2023-07-28T09:58:58;99409.08;;;22.09;71.62
65394;BME280;52002;49.760;6.512;2023-07-28T10:01:24;99411.61;;;21.94;71.70
65394;BME280;52002;49.760;6.512;2023-07-28T10:03:50;99408.04;;;21.79;72.09
65394;BME280;52002;49.760;6.512;2023-07-28T10:06:17;99408.34;;;21.73;72.37
65394;BME280;52002;49.760;6.512;2023-07-28T10:08:44;99404.92;;;21.69;72.61
65394;BME280;52002;49.760;6.512;2023-07-28T10:11:15;99413.27;;;21.66;72.69
65394;BME280;52002;49.760;6.512;2023-07-28T10:13:42;99414.61;;;21.71;73.02
65394;BME280;52002;49.760;6.512;2023-07-28T10:16:08;99412.29;;;21.88;72.56
65394;BME280;52002;49.760;6.512;2023-07-28T10:18:35;99416.44;;;22.09;72.30
65394;BME280;52002;49.760;6.512;2023-07-28T10:21:09;99417.61;;;22.27;71.87
65394;BME280;52002;49.760;6.512;2023-07-28T10:23:38;99422.05;;;22.42;72.12
65394;BME280;52002;49.760;6.512;2023-07-28T10:26:04;99420.73;;;22.44;71.61
65394;BME280;52002;49.760;6.512;2023-07-28T10:28:37;99420.40;;;22.43;71.47
65394;BME280;52002;49.760;6.512;2023-07-28T10:31:05;99421.47;;;22.40;71.51
65394;BME280;52002;49.760;6.512;2023-07-28T10:33:36;99420.31;;;22.32;71.74
65394;BME280;52002;49.760;6.512;2023-07-28T10:38:59;99424.56;;;22.08;71.89
65394;BME280;52002;49.760;6.512;2023-07-28T10:41:25;99419.94;;;22.17;72.04
65394;BME280;52002;49.760;6.512;2023-07-28T10:43:51;99420.86;;;22.32;72.09
65394;BME280;52002;49.760;6.512;2023-07-28T10:46:18;99420.50;;;22.52;71.96
65394;BME280;52002;49.760;6.512;2023-07-28T10:48:47;99414.75;;;22.88;71.19
65394;BME280;52002;49.760;6.512;2023-07-28T10:51:25;99417.53;;;23.22;70.54
65394;BME280;52002;49.760;6.512;2023-07-28T10:53:57;99419.54;;;23.50;69.83
65394;BME280;52002;49.760;6.512;2023-07-28T10:56:23;99418.92;;;23.69;69.09
65394;BME280;52002;49.760;6.512;2023-07-28T10:58:59;99418.13;;;23.75;68.41
65394;BME280;52002;49.760;6.512;2023-07-28T11:01:37;99416.84;;;23.70;67.89
65394;BME280;52002;49.760;6.512;2023-07-28T11:04:11;99417.14;;;23.58;68.11
65394;BME280;52002;49.760;6.512;2023-07-28T11:06:38;99419.93;;;23.51;67.84
65394;BME280;52002;49.760;6.512;2023-07-28T11:09:06;99420.27;;;23.46;68.00
65394;BME280;52002;49.760;6.512;2023-07-28T11:11:32;99418.14;;;23.42;68.15
65394;BME280;52002;49.760;6.512;2023-07-28T11:13:57;99418.98;;;23.34;68.39
65394;BME280;52002;49.760;6.512;2023-07-28T11:16:23;99419.61;;;23.26;68.61
65394;BME280;52002;49.760;6.512;2023-07-28T11:18:48;99416.46;;;23.21;68.82
65394;BME280;52002;49.760;6.512;2023-07-28T11:21:17;99416.83;;;23.35;68.51
65394;BME280;52002;49.760;6.512;2023-07-28T11:23:45;99417.05;;;23.49;68.03
65394;BME280;52002;49.760;6.512;2023-07-28T11:26:11;99423.20;;;23.59;67.70
65394;BME280;52002;49.760;6.512;2023-07-28T11:28:38;99425.46;;;23.59;67.50
65394;BME280;52002;49.760;6.512;2023-07-28T11:31:03;99420.02;;;23.46;67.65
65394;BME280;52002;49.760;6.512;2023-07-28T11:33:29;99415.20;;;23.37;67.86
65394;BME280;52002;49.760;6.512;2023-07-28T11:35:54;99422.30;;;23.36;67.76
65394;BME280;52002;49.760;6.512;2023-07-28T11:38:20;99425.73;;;23.28;67.81
65394;BME280;52002;49.760;6.512;2023-07-28T11:40:45;99416.69;;;23.17;67.95
65394;BME280;52002;49.760;6.512;2023-07-28T11:43:11;99422.64;;;23.21;68.24
65394;BME280;52002;49.760;6.512;2023-07-28T11:45:37;99413.30;;;23.50;68.01
65394;BME280;52002;49.760;6.512;2023-07-28T11:48:05;99414.23;;;23.86;67.22
65394;BME280;52002;49.760;6.512;2023-07-28T11:50:40;99415.52;;;24.04;66.86
65394;BME280;52002;49.760;6.512;2023-07-28T11:53:07;99417.95;;;23.87;66.69
65394;BME280;52002;49.760;6.512;2023-07-28T11:55:35;99417.64;;;23.58;67.03
65394;BME280;52002;49.760;6.512;2023-07-28T11:58:01;99418.98;;;23.48;67.51
65394;BME280;52002;49.760;6.512;2023-07-28T12:00:34;99415.75;;;23.45;67.39
65394;BME280;52002;49.760;6.512;2023-07-28T12:03:08;99416.64;;;23.50;67.52
65394;BME280;52002;49.760;6.512;2023-07-28T12:05:41;99414.55;;;23.76;67.39
65394;BME280;52002;49.760;6.512;2023-07-28T12:08:36;99410.61;;;23.80;67.08
65394;BME280;52002;49.760;6.512;2023-07-28T12:11:02;99408.70;;;23.70;67.42
65394;BME280;52002;49.760;6.512;2023-07-28T12:13:27;99411.70;;;23.55;67.31
65394;BME280;52002;49.760;6.512;2023-07-28T12:15:52;99414.40;;;23.34;67.32
65394;BME280;52002;49.760;6.512;2023-07-28T12:18:18;99414.67;;;23.10;67.94
65394;BME280;52002;49.760;6.512;2023-07-28T12:20:49;99415.60;;;23.00;68.10
65394;BME280;52002;49.760;6.512;2023-07-28T12:23:19;99417.22;;;23.03;68.17
65394;BME280;52002;49.760;6.512;2023-07-28T12:25:45;99421.11;;;23.00;68.20
65394;BME280;52002;49.760;6.512;2023-07-28T12:28:11;99422.27;;;23.01;68.23
65394;BME280;52002;49.760;6.512;2023-07-28T12:30:37;99420.35;;;23.04;68.17
65394;BME280;52002;49.760;6.512;2023-07-28T12:33:03;99417.02;;;23.02;68.21
65394;BME280;52002;49.760;6.512;2023-07-28T12:35:30;99421.73;;;22.92;68.48
65394;BME280;52002;49.760;6.512;2023-07-28T12:38:01;99421.16;;;22.89;68.71
65394;BME280;52002;49.760;6.512;2023-07-28T12:40:27;99423.60;;;23.10;68.63
65394;BME280;52002;49.760;6.512;2023-07-28T12:42:55;99423.71;;;23.25;68.22
65394;BME280;52002;49.760;6.512;2023-07-28T12:45:20;99428.16;;;23.18;68.04
65394;BME280;52002;49.760;6.512;2023-07-28T12:47:46;99429.58;;;23.02;68.24
65394;BME280;52002;49.760;6.512;2023-07-28T12:50:12;99429.79;;;22.83;68.36
65394;BME280;52002;49.760;6.512;2023-07-28T12:52:37;99431.58;;;22.71;68.52
65394;BME280;52002;49.760;6.512;2023-07-28T12:55:03;99433.30;;;22.65;68.81
65394;BME280;52002;49.760;6.512;2023-07-28T12:57:30;99434.71;;;22.59;68.88
65394;BME280;52002;49.760;6.512;2023-07-28T12:59:56;99436.63;;;22.54;68.71
65394;BME280;52002;49.760;6.512;2023-07-28T13:02:21;99438.27;;;22.59;68.71